Pilot Butte, Canada
Current Conditions -  °F | °C
As of 12:00 PM on Thursday 27 Nov 2014 (Local Time) from CYQR Reporting Station
Light Snow Light Snow  
Wind Chill: -5°   Ceiling: 2400
Heat Index: 10°   Visibility: 1.2mi
Dew Point:   Wind: 14mph
Humidity: 85%   Direction: 120°ESE
Pressure: 30.04"   Gusts: NA
Location:  50.48°N, 104.42°W
Report Text: CYQR 271800Z 12012KT 1 1/4SM -SN DRSN OVC024 M12/M14 A3004 RMK SC8 SLP221
Loading
Personal Weather Stations






























Interactive Weather Map New forecast layout! Learn more

10-Day Weather Forecast

Advertisements
Track Severe Weather on mobile